Time;durP1;ratioP1;P1;durP2;ratioP2;P2;SDS_P1;SDS_P2;PMS_P1;PMS_P2;Temp;Humidity;BMP_temperature;BMP_pressure;BME280_temperature;BME280_humidity;BME280_pressure;Samples;Min_cycle;Max_cycle;Signal;HPM_P1;HPM_P2
2022/03/03 00:01:14;;;;;;;29.40;14.73;;;;;;;-0.19;66.17;101823.84;5045863;28;20493;-71
2022/03/03 00:03:40;;;;;;;29.55;14.85;;;;;;;-0.09;65.77;101824.78;5068815;28;20773;-71
2022/03/03 00:06:06;;;;;;;29.25;14.70;;;;;;;-0.41;66.18;101803.88;5061432;28;20099;-71
2022/03/03 00:08:34;;;;;;;31.52;15.60;;;;;;;-0.63;67.12;101813.06;5061795;28;20493;-72
2022/03/03 00:11:00;;;;;;;33.15;15.95;;;;;;;-0.64;68.13;101813.94;5064942;28;20059;-71
2022/03/03 00:13:28;;;;;;;30.42;15.10;;;;;;;-0.81;69.03;101824.91;5054575;28;20042;-71
2022/03/03 00:15:55;;;;;;;28.30;14.60;;;;;;;-1.12;70.24;101823.63;5050139;28;20044;-71
2022/03/03 00:18:21;;;;;;;31.50;15.18;;;;;;;-1.06;70.66;101818.56;5065451;28;20048;-71
2022/03/03 00:20:48;;;;;;;33.13;15.27;;;;;;;-0.59;68.59;101816.53;5059016;28;20040;-71
2022/03/03 00:23:15;;;;;;;31.63;15.98;;;;;;;-0.65;67.65;101812.19;5056072;28;20048;-71
2022/03/03 00:25:41;;;;;;;32.38;15.75;;;;;;;-0.92;68.29;101816.19;5061558;28;20102;-71
2022/03/03 00:28:07;;;;;;;34.13;14.90;;;;;;;-1.10;69.07;101812.50;5058581;28;20048;-71
2022/03/03 00:30:35;;;;;;;31.98;15.10;;;;;;;-1.33;70.03;101813.06;5068504;28;20535;-71
2022/03/03 00:33:01;;;;;;;32.50;15.00;;;;;;;-1.38;70.88;101815.56;5069463;28;20041;-71
2022/03/03 00:35:28;;;;;;;31.02;16.20;;;;;;;-1.04;69.83;101809.16;5070094;28;20095;-71
2022/03/03 00:37:54;;;;;;;32.30;15.48;;;;;;;-0.80;68.69;101809.44;5069015;28;20102;-71
2022/03/03 00:40:20;;;;;;;27.42;14.10;;;;;;;-0.73;67.33;101812.94;5068397;28;20393;-71
2022/03/03 00:42:47;;;;;;;28.45;15.50;;;;;;;-0.75;67.36;101812.09;5069656;28;20074;-71
2022/03/03 00:45:13;;;;;;;27.65;14.95;;;;;;;-0.85;67.23;101812.84;5064124;28;20044;-71
2022/03/03 00:47:41;;;;;;;32.47;14.90;;;;;;;-0.69;66.80;101809.56;5055021;28;20057;-71
2022/03/03 00:50:08;;;;;;;35.35;15.60;;;;;;;-0.44;65.80;101813.28;5052963;28;20093;-71
2022/03/03 00:52:34;;;;;;;31.95;14.90;;;;;;;-0.55;65.72;101810.56;5044546;28;20048;-71
2022/03/03 00:55:01;;;;;;;31.38;15.00;;;;;;;-0.74;65.21;101806.09;5057939;28;20052;-71
2022/03/03 00:57:27;;;;;;;33.85;14.68;;;;;;;-0.60;65.05;101802.81;5060898;28;20052;-71
2022/03/03 00:59:54;;;;;;;26.85;14.02;;;;;;;-0.49;65.01;101808.09;5051634;28;20072;-71
2022/03/03 01:02:20;;;;;;;27.55;14.38;;;;;;;-0.47;64.85;101806.38;5062607;28;20044;-71
2022/03/03 01:04:48;;;;;;;29.00;13.82;;;;;;;-0.38;64.09;101798.75;5056865;28;20094;-71
2022/03/03 01:07:14;;;;;;;28.35;14.63;;;;;;;-0.53;64.79;101802.03;5063823;28;20106;-71
2022/03/03 01:09:40;;;;;;;32.03;15.45;;;;;;;-0.52;65.46;101801.16;5055876;28;20083;-71
2022/03/03 01:12:08;;;;;;;30.95;15.02;;;;;;;-0.50;65.60;101790.88;5054234;28;20098;-71
2022/03/03 01:14:34;;;;;;;28.05;14.15;;;;;;;-0.53;65.45;101796.00;5056743;28;20041;-71
2022/03/03 01:17:00;;;;;;;29.83;14.63;;;;;;;-0.60;66.01;101791.66;5049466;28;20045;-71
2022/03/03 01:19:27;;;;;;;30.15;15.45;;;;;;;-0.65;65.95;101785.56;5048576;28;20126;-71
2022/03/03 01:21:54;;;;;;;31.17;14.15;;;;;;;-0.67;65.63;101792.44;5065665;28;20067;-71
2022/03/03 01:24:21;;;;;;;29.15;15.05;;;;;;;-0.40;64.65;101789.25;5063864;28;20110;-71
2022/03/03 01:26:47;;;;;;;31.98;14.48;;;;;;;-0.39;64.65;101786.69;5057106;28;20041;-71
2022/03/03 01:29:14;;;;;;;31.58;14.68;;;;;;;-0.45;64.74;101789.22;5080628;28;20097;-72
2022/03/03 01:31:40;;;;;;;32.95;14.05;;;;;;;-0.41;64.01;101792.69;5067891;28;20082;-72
2022/03/03 01:34:07;;;;;;;28.60;14.57;;;;;;;-0.45;64.46;101794.38;5068883;28;20045;-72
2022/03/03 01:36:34;;;;;;;29.45;13.88;;;;;;;-0.45;64.39;101793.50;5069036;28;20044;-72
2022/03/03 01:39:02;;;;;;;30.10;14.35;;;;;;;-0.59;65.28;101778.75;5066176;28;20048;-72
2022/03/03 01:41:28;;;;;;;27.00;13.68;;;;;;;-0.68;66.36;101782.97;5070750;28;20051;-72
2022/03/03 01:43:54;;;;;;;28.38;14.00;;;;;;;-0.57;66.22;101789.09;5088716;28;20125;-72
2022/03/03 01:46:21;;;;;;;32.65;14.70;;;;;;;-0.73;65.44;101777.75;5089370;28;20040;-72
2022/03/03 01:48:47;;;;;;;26.17;13.75;;;;;;;-0.88;65.45;101769.88;5088261;28;20138;-72
2022/03/03 01:51:14;;;;;;;32.00;14.50;;;;;;;-0.78;65.34;101776.00;5087707;28;20409;-72
2022/03/03 01:53:40;;;;;;;27.10;14.43;;;;;;;-0.69;65.42;101779.53;5068437;28;20132;-72
2022/03/03 01:56:09;;;;;;;31.00;14.48;;;;;;;-0.77;65.58;101778.56;5054702;28;20447;-72
2022/03/03 01:58:37;;;;;;;29.85;13.85;;;;;;;-1.02;67.21;101780.00;5067516;28;20048;-72
2022/03/03 02:01:04;;;;;;;27.13;13.38;;;;;;;-1.07;67.33;101776.50;5055269;28;20175;-72
2022/03/03 02:03:31;;;;;;;29.40;14.45;;;;;;;-1.11;67.62;101774.75;5068618;28;20075;-71
2022/03/03 02:05:57;;;;;;;31.88;14.32;;;;;;;-0.87;66.78;101769.03;5055577;28;20124;-71
2022/03/03 02:08:24;;;;;;;29.35;13.68;;;;;;;-0.85;66.07;101767.31;5055505;28;20052;-71
2022/03/03 02:10:51;;;;;;;30.42;14.35;;;;;;;-0.75;65.67;101773.47;5063875;28;20044;-71
2022/03/03 02:13:19;;;;;;;26.52;13.43;;;;;;;-0.93;66.59;101770.69;5082448;28;20098;-71
2022/03/03 02:15:50;;;;;;;29.85;13.98;;;;;;;-1.05;67.64;101779.97;5052750;28;20419;-71
2022/03/03 02:18:17;;;;;;;24.90;12.95;;;;;;;-1.26;68.62;101777.16;5060979;28;20086;-71
2022/03/03 02:20:44;;;;;;;25.70;13.00;;;;;;;-1.41;69.31;101769.22;5067909;28;20110;-71
2022/03/03 02:23:11;;;;;;;24.42;12.93;;;;;;;-1.25;69.04;101767.69;5066503;28;20099;-71
2022/03/03 02:25:37;;;;;;;31.17;13.80;;;;;;;-1.18;68.50;101767.78;5067229;28;20121;-70
2022/03/03 02:28:04;;;;;;;27.42;12.77;;;;;;;-1.27;68.19;101759.97;5038498;28;20547;-70
2022/03/03 02:30:30;;;;;;;25.83;11.15;;;;;;;-1.09;67.25;101752.47;5050948;28;20049;-73
2022/03/03 02:32:57;;;;;;;22.40;11.15;;;;;;;-1.09;66.88;101757.63;5061674;28;20044;-71
2022/03/03 02:35:24;;;;;;;23.02;11.13;;;;;;;-1.22;66.44;101755.72;5071504;28;20121;-70
2022/03/03 02:37:51;;;;;;;21.77;10.85;;;;;;;-1.35;66.31;101753.88;5068666;28;20048;-70
2022/03/03 02:40:20;;;;;;;22.92;11.45;;;;;;;-1.25;66.30;101737.69;5068165;28;20095;-71
2022/03/03 02:42:47;;;;;;;22.45;11.13;;;;;;;-1.23;65.89;101742.88;5054941;28;20040;-70
2022/03/03 02:45:14;;;;;;;21.42;11.25;;;;;;;-1.05;65.52;101743.94;5069341;28;20097;-70
2022/03/03 02:47:41;;;;;;;22.80;11.40;;;;;;;-1.28;66.77;101750.53;5068878;28;21129;-71
2022/03/03 02:50:09;;;;;;;23.40;11.13;;;;;;;-1.58;68.31;101742.41;5051130;28;20053;-71
2022/03/03 02:52:35;;;;;;;20.35;10.68;;;;;;;-1.56;68.56;101733.88;5064113;28;20120;-71
2022/03/03 02:55:03;;;;;;;24.17;11.73;;;;;;;-1.44;68.06;101733.16;5055760;28;20044;-71
2022/03/03 03:00:15;;;;;;;24.65;11.88;;;;;;;-2.01;68.91;101728.06;5067619;28;20051;-71
2022/03/03 03:02:42;;;;;;;20.33;10.73;;;;;;;-2.03;69.31;101729.75;5067002;28;20053;-71
2022/03/03 03:05:08;;;;;;;24.42;11.20;;;;;;;-1.83;68.42;101722.34;5063442;28;20413;-71
2022/03/03 03:07:35;;;;;;;21.65;11.02;;;;;;;-1.84;68.08;101715.44;5067241;28;20041;-71
2022/03/03 03:10:03;;;;;;;23.92;11.35;;;;;;;-1.67;67.41;101714.00;5054705;28;20045;-71
2022/03/03 03:12:30;;;;;;;24.20;12.25;;;;;;;-1.72;67.53;101713.06;5067123;28;20431;-70
2022/03/03 03:14:56;;;;;;;25.45;11.20;;;;;;;-2.11;69.99;101708.22;5057956;28;20239;-71
2022/03/03 03:17:23;;;;;;;27.60;12.57;;;;;;;-2.33;71.09;101703.59;5047571;28;20095;-69
2022/03/03 03:19:49;;;;;;;26.40;12.30;;;;;;;-2.51;71.77;101712.72;5058744;28;20049;-70
2022/03/03 03:22:16;;;;;;;26.83;13.15;;;;;;;-2.42;71.93;101714.56;5062158;28;20470;-70
2022/03/03 03:24:42;;;;;;;47.30;12.13;;;;;;;-2.38;71.57;101718.06;5062565;28;20512;-70
2022/03/03 03:27:10;;;;;;;26.20;12.25;;;;;;;-2.62;71.24;101708.22;5070183;28;20110;-70
2022/03/03 03:29:36;;;;;;;28.90;13.07;;;;;;;-2.34;70.83;101714.69;5052585;28;20048;-70
2022/03/03 03:32:03;;;;;;;26.88;13.38;;;;;;;-2.10;70.04;101722.78;5053618;28;20102;-70
2022/03/03 03:34:29;;;;;;;23.73;10.65;;;;;;;-2.08;69.17;101714.28;5058934;28;20450;-70
2022/03/03 03:36:56;;;;;;;23.15;10.90;;;;;;;-1.91;67.19;101706.78;5088529;28;20132;-70
2022/03/03 03:39:22;;;;;;;23.92;11.88;;;;;;;-1.72;66.33;101713.06;5060920;28;20754;-70
2022/03/03 03:41:48;;;;;;;21.83;11.77;;;;;;;-1.93;66.39;101710.19;5058338;28;20460;-70
2022/03/03 03:44:16;;;;;;;29.60;11.88;;;;;;;-1.90;66.54;101705.09;5068184;28;20044;-70
2022/03/03 03:46:42;;;;;;;21.63;11.52;;;;;;;-1.82;66.58;101704.38;5051454;28;20064;-70
2022/03/03 03:49:09;;;;;;;22.95;10.75;;;;;;;-1.83;66.42;101699.19;5050092;28;20053;-71
2022/03/03 03:51:35;;;;;;;34.83;13.57;;;;;;;-2.02;66.52;101703.22;5051045;28;20118;-70
2022/03/03 03:54:02;;;;;;;22.13;11.68;;;;;;;-2.08;67.29;101696.28;5063990;28;20075;-71
2022/03/03 03:56:28;;;;;;;23.55;11.95;;;;;;;-1.85;66.50;101683.78;5070297;28;20075;-70
2022/03/03 03:58:54;;;;;;;30.92;11.73;;;;;;;-1.80;66.33;101696.66;5057920;28;20668;-71
2022/03/03 04:01:22;;;;;;;26.92;12.10;;;;;;;-1.88;66.31;101698.25;5070928;28;20498;-71
2022/03/03 04:03:49;;;;;;;25.08;11.45;;;;;;;-1.76;66.43;101693.28;5052424;28;20045;-70
2022/03/03 04:06:16;;;;;;;22.17;12.35;;;;;;;-1.97;66.67;101691.31;5069774;28;20048;-70
2022/03/03 04:08:42;;;;;;;23.67;12.60;;;;;;;-1.86;66.52;101696.59;5072600;28;20055;-71
2022/03/03 04:11:08;;;;;;;26.75;12.50;;;;;;;-2.25;68.31;101691.72;5057530;28;20554;-70
2022/03/03 04:13:35;;;;;;;26.42;11.70;;;;;;;-2.09;67.52;101691.97;5069523;28;20040;-70
2022/03/03 04:16:01;;;;;;;21.83;12.15;;;;;;;-1.97;67.38;101693.88;5057743;28;20067;-70
2022/03/03 04:18:29;;;;;;;24.02;11.48;;;;;;;-1.75;66.36;101701.03;5049783;28;20130;-70
2022/03/03 04:20:55;;;;;;;23.38;11.90;;;;;;;-2.09;68.26;101703.97;5048740;28;20067;-70
2022/03/03 04:23:22;;;;;;;25.45;11.45;;;;;;;-2.05;68.17;101706.59;5050789;28;20040;-70
2022/03/03 04:25:48;;;;;;;32.75;12.23;;;;;;;-2.03;68.73;101704.03;5068453;28;20119;-70
2022/03/03 04:28:15;;;;;;;25.58;10.98;;;;;;;-1.94;68.46;101699.06;5059074;28;20044;-70
2022/03/03 04:30:41;;;;;;;29.45;12.63;;;;;;;-2.06;68.86;101704.00;5058533;28;20051;-70
2022/03/03 04:33:07;;;;;;;26.80;11.38;;;;;;;-1.90;68.18;101699.97;5059397;28;20075;-70
2022/03/03 04:35:35;;;;;;;23.33;11.57;;;;;;;-2.53;69.68;101695.56;5067223;28;20462;-70
2022/03/03 04:38:02;;;;;;;41.75;18.65;;;;;;;-2.13;69.64;101700.47;5067685;28;20098;-70
2022/03/03 04:40:28;;;;;;;31.20;15.15;;;;;;;-2.01;69.00;101689.53;5067133;28;20114;-70
2022/03/03 04:42:54;;;;;;;25.08;11.82;;;;;;;-2.21;67.89;101694.34;5067454;28;20566;-70
2022/03/03 04:45:21;;;;;;;26.23;12.38;;;;;;;-2.41;68.21;101687.19;5067282;28;20075;-71
2022/03/03 04:47:47;;;;;;;27.38;13.55;;;;;;;-2.29;68.44;101685.66;5049635;28;20045;-71
2022/03/03 04:50:14;;;;;;;30.52;14.52;;;;;;;-2.01;67.57;101687.81;5062220;28;20040;-71
2022/03/03 04:52:42;;;;;;;31.75;14.45;;;;;;;-1.90;67.60;101687.09;5076519;28;20047;-70
2022/03/03 04:55:09;;;;;;;31.58;14.50;;;;;;;-1.72;66.60;101685.66;5056765;28;20053;-70
2022/03/03 04:57:35;;;;;;;38.33;18.15;;;;;;;-1.48;65.77;101685.13;5069480;28;20535;-71
2022/03/03 05:00:02;;;;;;;35.47;17.00;;;;;;;-1.69;67.46;101687.38;5063279;28;20390;-71
2022/03/03 05:02:28;;;;;;;39.92;18.40;;;;;;;-2.07;68.08;101680.00;5065380;28;20117;-71
2022/03/03 05:04:54;;;;;;;33.05;16.05;;;;;;;-1.97;68.35;101681.88;5068571;28;20060;-71
2022/03/03 05:07:20;;;;;;;38.70;17.52;;;;;;;-1.83;67.71;101692.34;5065703;28;20045;-70
2022/03/03 05:09:48;;;;;;;34.17;18.20;;;;;;;-2.36;68.41;101680.41;5060518;28;20093;-70
2022/03/03 05:12:15;;;;;;;42.30;19.02;;;;;;;-2.66;69.52;101670.53;5068544;28;20618;-70
2022/03/03 05:14:41;;;;;;;33.88;15.45;;;;;;;-2.10;68.61;101674.81;5056740;28;20413;-70
2022/03/03 05:17:07;;;;;;;29.83;15.65;;;;;;;-2.16;70.55;101687.59;5057248;28;20044;-70
2022/03/03 05:19:34;;;;;;;32.17;17.17;;;;;;;-2.26;69.10;101677.16;5068305;28;20045;-70
2022/03/03 05:22:00;;;;;;;40.70;15.77;;;;;;;-2.59;70.00;101669.78;5053938;28;20072;-70
2022/03/03 05:24:26;;;;;;;32.75;16.17;;;;;;;-2.52;70.38;101669.91;5068218;28;20094;-70
2022/03/03 05:26:54;;;;;;;30.38;16.38;;;;;;;-2.63;70.70;101666.31;5055996;28;20041;-70
2022/03/03 05:29:21;;;;;;;36.95;16.65;;;;;;;-2.89;71.05;101664.13;5068306;28;20044;-70
2022/03/03 05:31:47;;;;;;;33.85;16.40;;;;;;;-3.02;72.35;101663.91;5060520;28;20037;-70
2022/03/03 05:34:14;;;;;;;29.88;15.50;;;;;;;-2.39;70.55;101668.38;5068372;28;20048;-70
2022/03/03 05:36:42;;;;;;;28.55;15.70;;;;;;;-2.43;70.18;101663.16;5060760;28;20047;-70
2022/03/03 05:39:09;;;;;;;34.33;15.63;;;;;;;-2.68;70.18;101667.06;5060828;28;20129;-70
2022/03/03 05:41:35;;;;;;;28.80;15.18;;;;;;;-2.32;69.52;101659.94;5066764;28;20124;-70
2022/03/03 05:44:04;;;;;;;33.22;14.52;;;;;;;-2.40;69.41;101669.22;5056240;28;20594;-71
2022/03/03 05:46:31;;;;;;;32.63;15.15;;;;;;;-2.69;69.46;101675.59;5068069;28;20055;-71
2022/03/03 05:48:58;;;;;;;33.13;16.17;;;;;;;-2.77;71.15;101664.34;5060493;28;20048;-71
2022/03/03 05:51:24;;;;;;;34.45;15.27;;;;;;;-2.23;69.89;101666.94;5054449;28;20052;-71
2022/03/03 05:53:51;;;;;;;28.77;14.82;;;;;;;-2.02;68.66;101670.66;5070635;28;20044;-71
2022/03/03 05:56:19;;;;;;;28.35;14.50;;;;;;;-2.00;68.54;101674.16;5055698;28;20078;-70
2022/03/03 05:58:48;;;;;;;34.17;15.10;;;;;;;-2.03;68.24;101684.34;5066238;28;20632;-71
2022/03/03 06:01:18;;;;;;;28.85;15.43;;;;;;;-1.81;67.40;101682.94;5062765;28;20102;-70
2022/03/03 06:03:47;;;;;;;31.67;15.13;;;;;;;-1.84;67.80;101680.34;5066257;28;20045;-70
2022/03/03 06:06:16;;;;;;;27.45;15.27;;;;;;;-2.00;68.44;101691.25;5061793;28;20049;-71
2022/03/03 06:08:55;;;;;;;28.40;15.55;;;;;;;-1.81;68.77;101687.25;5056170;28;20108;-71
2022/03/03 06:11:25;;;;;;;27.35;15.70;;;;;;;-1.96;69.54;101683.59;5063031;28;20048;-70
2022/03/03 06:13:53;;;;;;;30.70;14.57;;;;;;;-1.86;69.55;101694.03;5067416;28;20110;-71
2022/03/03 06:16:22;;;;;;;31.30;15.48;;;;;;;-1.97;70.30;101683.59;5068758;28;20086;-71
2022/03/03 06:18:49;;;;;;;26.95;14.45;;;;;;;-2.12;70.91;101679.09;5064514;28;20049;-71
2022/03/03 06:21:16;;;;;;;31.45;15.55;;;;;;;-1.66;70.15;101684.84;5061988;28;20060;-71
2022/03/03 06:23:43;;;;;;;43.58;15.90;;;;;;;-1.80;70.11;101676.97;5063067;28;20041;-71
2022/03/03 06:26:12;;;;;;;32.90;15.80;;;;;;;-2.09;70.00;101674.00;5049210;28;20049;-71
2022/03/03 06:28:39;;;;;;;37.95;14.93;;;;;;;-2.30;72.20;101673.69;5062628;28;20090;-71
2022/03/03 06:31:06;;;;;;;32.38;17.13;;;;;;;-2.11;71.73;101661.97;5048562;28;20096;-71
2022/03/03 06:33:34;;;;;;;31.15;15.98;;;;;;;-1.54;70.43;101674.72;5062948;28;20113;-71
2022/03/03 06:36:00;;;;;;;39.72;17.30;;;;;;;-0.96;69.18;101676.22;5058111;28;20041;-71
2022/03/03 06:38:27;;;;;;;30.95;16.38;;;;;;;-0.12;67.05;101680.41;5062801;28;20048;-71
2022/03/03 06:40:55;;;;;;;34.97;15.13;;;;;;;-0.14;64.85;101679.50;5045413;28;20095;-71
2022/03/03 06:43:21;;;;;;;29.95;16.20;;;;;;;-0.31;65.20;101686.28;5037679;28;20068;-72
2022/03/03 06:45:48;;;;;;;36.78;17.85;;;;;;;-0.08;66.49;101698.50;5048978;28;20411;-71
2022/03/03 06:48:14;;;;;;;34.85;17.63;;;;;;;-0.02;66.33;101716.56;5067169;28;20067;-71
2022/03/03 06:50:43;;;;;;;35.28;17.38;;;;;;;-0.12;66.83;101703.59;5056768;28;20060;-71
2022/03/03 06:53:10;;;;;;;33.50;16.63;;;;;;;0.08;66.75;101699.44;5065399;28;20052;-71
2022/03/03 06:55:38;;;;;;;33.05;16.08;;;;;;;0.36;66.15;101700.47;5055818;28;20086;-70
2022/03/03 06:58:04;;;;;;;40.60;16.00;;;;;;;0.63;65.36;101695.41;5059944;28;20055;-72
2022/03/03 07:00:35;;;;;;;39.15;16.63;;;;;;;1.00;65.15;101696.41;5035767;28;20044;-72
2022/03/03 07:03:02;;;;;;;34.88;17.30;;;;;;;1.51;64.24;101695.63;5071622;28;20128;-71
2022/03/03 07:05:30;;;;;;;33.53;16.75;;;;;;;1.81;62.76;101687.84;5060704;28;20098;-71
2022/03/03 07:07:59;;;;;;;31.20;16.55;;;;;;;2.34;61.14;101681.72;5044546;28;20041;-71
2022/03/03 07:10:25;;;;;;;27.75;16.50;;;;;;;2.15;61.24;101685.22;5038028;28;20072;-70
2022/03/03 07:12:53;;;;;;;42.38;16.80;;;;;;;2.30;62.56;101698.13;5058517;28;20091;-71
2022/03/03 07:15:20;;;;;;;28.33;16.23;;;;;;;2.96;61.02;101699.56;5066583;28;20074;-71
2022/03/03 07:17:49;;;;;;;27.55;16.48;;;;;;;3.70;59.85;101699.06;5062037;28;20064;-71
2022/03/03 07:20:18;;;;;;;30.77;17.05;;;;;;;3.85;59.51;101690.28;5057566;28;20041;-71
2022/03/03 07:23:01;;;;;;;30.98;17.80;;;;;;;4.34;57.93;101685.47;5059745;28;20056;-71
2022/03/03 07:25:34;;;;;;;38.35;17.52;;;;;;;4.48;58.07;101685.31;5060863;28;20040;-71
2022/03/03 07:28:04;;;;;;;31.35;18.40;;;;;;;4.76;58.72;101690.19;5087186;28;20620;-71
2022/03/03 07:30:31;;;;;;;32.97;17.95;;;;;;;5.21;57.51;101685.22;5068308;28;20052;-72
2022/03/03 07:33:06;;;;;;;34.40;19.52;;;;;;;5.42;57.10;101691.84;5057371;28;20050;-72
2022/03/03 07:35:35;;;;;;;30.25;18.65;;;;;;;5.56;55.90;101682.94;5037438;28;20049;-72
2022/03/03 07:38:12;;;;;;;34.08;18.17;;;;;;;5.86;55.04;101682.47;5059705;28;20044;-72
2022/03/03 07:40:39;;;;;;;35.92;20.70;;;;;;;6.16;54.70;101669.78;5035563;28;20100;-71
2022/03/03 07:43:06;;;;;;;35.90;20.85;;;;;;;6.53;53.96;101662.97;5061687;28;20090;-71
2022/03/03 07:45:32;;;;;;;34.88;21.15;;;;;;;6.63;53.04;101667.09;5049858;28;20052;-71
2022/03/03 07:47:59;;;;;;;34.45;20.38;;;;;;;6.77;51.39;101670.25;5044977;28;20072;-71
2022/03/03 07:50:26;;;;;;;35.22;20.08;;;;;;;7.09;53.20;101668.72;5054000;28;20048;-71
2022/03/03 07:52:53;;;;;;;33.70;19.35;;;;;;;7.33;51.93;101676.81;5053689;28;20075;-72
2022/03/03 07:55:22;;;;;;;33.35;20.60;;;;;;;7.81;51.17;101679.13;5053552;28;20126;-74
2022/03/03 07:57:57;;;;;;;30.20;19.00;;;;;;;8.17;49.85;101674.69;5050721;28;20166;-73
2022/03/03 08:00:24;;;;;;;31.92;18.83;;;;;;;8.03;49.70;101680.28;5063431;28;20041;-73
2022/03/03 08:02:53;;;;;;;34.45;19.73;;;;;;;8.27;50.77;101686.63;5050265;28;20041;-73
2022/03/03 08:05:22;;;;;;;34.63;19.75;;;;;;;8.52;50.23;101698.16;5058380;28;20098;-74
2022/03/03 08:07:55;;;;;;;31.65;19.77;;;;;;;8.84;49.24;101697.22;5055194;28;20048;-73
2022/03/03 08:10:26;;;;;;;30.38;18.92;;;;;;;8.94;48.39;101692.59;5049960;28;20099;-73
2022/03/03 08:12:56;;;;;;;34.75;19.27;;;;;;;8.39;47.00;101688.09;5054418;28;20064;-74
2022/03/03 08:15:23;;;;;;;33.17;20.13;;;;;;;8.64;50.59;101692.59;5056767;28;20041;-72
2022/03/03 08:17:51;;;;;;;27.77;19.05;;;;;;;9.33;48.72;101698.34;5064924;28;20041;-72
2022/03/03 08:20:19;;;;;;;33.10;20.52;;;;;;;9.45;46.95;101690.13;5049051;28;20630;-72
2022/03/03 08:22:45;;;;;;;30.23;19.88;;;;;;;9.60;47.12;101693.09;5059166;28;20408;-72
2022/03/03 08:25:13;;;;;;;34.25;21.80;;;;;;;9.60;46.74;101687.00;5061530;28;20566;-72
2022/03/03 08:27:41;;;;;;;32.53;20.60;;;;;;;9.85;48.89;101687.91;5050938;28;20094;-72
2022/03/03 08:30:10;;;;;;;34.45;20.45;;;;;;;10.12;47.35;101689.59;5057696;28;20105;-72
2022/03/03 08:32:40;;;;;;;33.45;20.60;;;;;;;10.29;47.11;101689.03;5065993;28;20463;-73
2022/03/03 08:35:11;;;;;;;34.45;20.55;;;;;;;10.10;44.63;101687.91;5051503;28;20052;-73
2022/03/03 08:37:40;;;;;;;32.60;20.67;;;;;;;9.98;47.80;101683.09;5047629;28;20045;-73
2022/03/03 08:40:09;;;;;;;32.28;20.88;;;;;;;10.59;45.66;101682.69;5058387;28;20095;-73
2022/03/03 08:42:38;;;;;;;31.83;20.58;;;;;;;10.92;44.43;101680.56;5050624;28;20090;-73
2022/03/03 08:45:10;;;;;;;31.60;21.30;;;;;;;10.75;45.47;101680.34;5067370;28;20048;-73
2022/03/03 08:47:37;;;;;;;32.03;20.98;;;;;;;10.83;46.59;101675.66;5069245;28;20048;-73
2022/03/03 08:50:08;;;;;;;34.90;21.67;;;;;;;10.78;45.52;101685.47;5052732;28;20102;-73
2022/03/03 08:52:38;;;;;;;32.83;21.08;;;;;;;11.22;44.73;101687.25;5066937;28;20044;-73
2022/03/03 08:55:05;;;;;;;32.67;20.80;;;;;;;11.45;44.92;101685.50;5064476;28;20094;-73
2022/03/03 08:57:32;;;;;;;32.75;21.33;;;;;;;11.56;44.29;101678.88;5062793;28;20553;-73
2022/03/03 08:59:58;;;;;;;36.22;21.73;;;;;;;11.77;43.76;101671.06;5082124;28;20052;-72
2022/03/03 09:02:26;;;;;;;38.65;21.08;;;;;;;12.26;42.57;101662.78;5067687;28;20126;-72
2022/03/03 09:04:52;;;;;;;32.38;21.60;;;;;;;11.95;41.68;101660.63;5035524;28;20069;-72
2022/03/03 09:07:19;;;;;;;34.15;21.48;;;;;;;12.06;43.46;101658.38;5065584;28;20098;-72
2022/03/03 09:09:45;;;;;;;34.03;22.15;;;;;;;12.18;43.08;101672.78;5055616;28;20072;-72
2022/03/03 09:12:13;;;;;;;34.30;21.05;;;;;;;12.73;42.81;101668.53;5048851;28;20496;-72
2022/03/03 09:14:40;;;;;;;32.72;21.63;;;;;;;12.86;42.83;101669.66;5049839;28;20045;-72
2022/03/03 09:17:06;;;;;;;32.65;21.92;;;;;;;12.95;43.08;101666.63;5060441;28;20049;-72
2022/03/03 09:19:34;;;;;;;33.15;22.20;;;;;;;12.96;43.65;101672.75;5050085;28;20126;-72
2022/03/03 09:22:01;;;;;;;37.45;22.77;;;;;;;12.97;41.72;101666.56;5065959;28;20052;-72
2022/03/03 09:24:27;;;;;;;36.58;22.75;;;;;;;13.06;43.42;101669.59;5046120;28;20053;-72
2022/03/03 09:26:54;;;;;;;33.75;21.75;;;;;;;13.23;42.36;101665.34;5063387;28;20075;-72
2022/03/03 09:29:21;;;;;;;37.05;22.45;;;;;;;13.34;43.26;101669.16;5052370;28;20044;-72
2022/03/03 09:31:48;;;;;;;37.60;22.77;;;;;;;13.54;42.30;101663.78;5053745;28;20040;-73
2022/03/03 09:34:14;;;;;;;38.60;22.35;;;;;;;13.54;41.11;101661.16;5045881;28;20048;-73
2022/03/03 09:36:42;;;;;;;39.63;23.90;;;;;;;13.36;42.42;101672.59;5053789;28;20041;-73
2022/03/03 09:39:08;;;;;;;38.33;23.98;;;;;;;13.20;42.99;101673.38;5050713;28;20426;-73
2022/03/03 09:41:35;;;;;;;35.72;24.08;;;;;;;13.49;41.53;101664.91;5066998;28;20045;-73
2022/03/03 09:44:01;;;;;;;34.88;22.55;;;;;;;13.02;41.20;101667.19;5055044;28;20102;-73
2022/03/03 09:46:27;;;;;;;37.13;22.13;;;;;;;13.30;42.20;101662.34;5066669;28;20113;-72
2022/03/03 09:48:54;;;;;;;36.85;22.67;;;;;;;13.80;42.65;101664.25;5047458;28;20041;-72
2022/03/03 09:51:20;;;;;;;37.45;21.63;;;;;;;14.01;38.60;101656.09;5047336;28;20440;-73
2022/03/03 09:53:49;;;;;;;33.60;21.77;;;;;;;14.53;38.52;101659.53;5063196;28;20045;-73
2022/03/03 09:56:16;;;;;;;35.40;21.52;;;;;;;14.39;39.76;101648.88;5064180;28;20072;-73
2022/03/03 09:58:42;;;;;;;31.58;19.55;;;;;;;14.68;40.06;101657.00;5067286;28;20097;-73
2022/03/03 10:01:09;;;;;;;31.20;19.65;;;;;;;15.18;41.38;101660.38;5058919;28;20099;-73
2022/03/03 10:03:37;;;;;;;30.90;20.00;;;;;;;15.19;40.79;101662.06;5061722;28;20044;-73
2022/03/03 10:06:04;;;;;;;32.85;18.05;;;;;;;15.09;40.85;101655.59;5058624;28;20084;-73
2022/03/03 10:08:31;;;;;;;27.35;16.98;;;;;;;15.40;40.94;101660.00;5057906;28;20101;-73
2022/03/03 10:11:01;;;;;;;26.98;16.45;;;;;;;15.51;38.03;101655.84;5065436;28;20446;-73
2022/03/03 10:13:43;;;;;;;31.30;16.73;;;;;;;15.59;38.87;101648.28;5061125;28;20439;-73
2022/03/03 10:16:10;;;;;;;27.08;16.60;;;;;;;15.57;40.23;101657.25;5055006;28;20053;-73
2022/03/03 10:18:37;;;;;;;31.73;18.85;;;;;;;15.45;40.04;101661.44;5055728;28;20045;-73
2022/03/03 10:21:04;;;;;;;29.60;18.92;;;;;;;15.27;39.79;101662.47;5070029;28;20072;-73
2022/03/03 10:23:34;;;;;;;28.05;18.08;;;;;;;15.27;40.80;101669.53;5047476;28;20120;-73
2022/03/03 10:26:04;;;;;;;26.33;17.05;;;;;;;15.44;40.35;101669.47;5063798;28;20048;-73
2022/03/03 10:28:33;;;;;;;30.33;17.67;;;;;;;15.49;40.69;101663.00;5086138;28;20108;-72
2022/03/03 10:31:01;;;;;;;28.15;16.98;;;;;;;15.24;40.39;101662.66;5092181;28;20419;-72
2022/03/03 10:33:30;;;;;;;27.42;16.83;;;;;;;15.32;40.92;101664.88;5092776;28;20044;-72
2022/03/03 10:36:15;;;;;;;37.17;20.83;;;;;;;15.18;40.04;101670.09;5078868;28;20401;-72
2022/03/03 10:38:50;;;;;;;34.03;22.42;;;;;;;15.29;39.94;101675.63;5050882;28;20052;-73
2022/03/03 10:41:40;;;;;;;42.55;24.98;;;;;;;14.79;40.71;101678.41;5052871;28;20041;-72
2022/03/03 10:44:08;;;;;;;41.63;23.75;;;;;;;14.22;41.74;101672.63;5051142;28;20037;-72
2022/03/03 10:46:36;;;;;;;43.55;24.08;;;;;;;14.22;43.61;101674.41;5066167;28;20066;-72
2022/03/03 10:49:20;;;;;;;39.47;23.38;;;;;;;13.09;45.19;101674.75;5071794;28;20048;-72
2022/03/03 10:51:47;;;;;;;40.00;21.50;;;;;;;13.14;45.17;101679.81;5072238;28;20056;-72
2022/03/03 10:54:13;;;;;;;34.75;19.85;;;;;;;12.51;44.72;101673.91;5066278;28;20102;-72
2022/03/03 10:56:45;;;;;;;33.17;19.65;;;;;;;12.39;46.88;101674.47;5070636;28;20463;-72
2022/03/03 10:59:17;;;;;;;30.55;17.70;;;;;;;12.12;45.86;101679.13;5062104;28;20041;-72
2022/03/03 11:01:45;;;;;;;27.08;16.38;;;;;;;11.92;46.10;101697.56;5054996;28;20066;-72
2022/03/03 11:04:16;;;;;;;27.30;17.10;;;;;;;11.74;47.01;101698.31;5051984;28;20048;-72
2022/03/03 11:06:43;;;;;;;33.03;18.00;;;;;;;11.23;47.97;101696.00;5052144;28;20554;-72
2022/03/03 11:09:10;;;;;;;30.35;17.23;;;;;;;11.14;48.74;101696.34;5054734;28;20275;-72
2022/03/03 11:11:37;;;;;;;36.10;19.50;;;;;;;10.80;49.61;101706.38;5069187;28;20124;-72
2022/03/03 11:14:05;;;;;;;34.67;17.42;;;;;;;9.18;51.54;101713.63;5057110;28;20045;-72